createdAt,value
2019-04-04T00:00:58.044Z,19.00
2019-04-04T00:01:58.072Z,18.60
2019-04-04T00:02:58.027Z,18.40
2019-04-04T00:03:58.018Z,16.90
2019-04-04T00:04:58.007Z,17.50
2019-04-04T00:05:57.998Z,16.60
2019-04-04T00:06:58.722Z,19.30
2019-04-04T00:07:59.913Z,15.50
2019-04-04T00:08:57.957Z,14.90
2019-04-04T00:09:57.949Z,16.30
2019-04-04T00:10:57.940Z,18.60
2019-04-04T00:11:57.954Z,19.30
2019-04-04T00:12:57.912Z,17.70
2019-04-04T00:13:57.905Z,16.50
2019-04-04T00:14:57.902Z,16.80
2019-04-04T00:15:57.886Z,22.80
2019-04-04T00:16:57.895Z,21.10
2019-04-04T00:17:57.885Z,19.00
2019-04-04T00:18:59.091Z,17.30
2019-04-04T00:19:58.987Z,18.80
2019-04-04T00:20:57.828Z,18.20
2019-04-04T00:21:57.851Z,17.90
2019-04-04T00:22:57.818Z,19.90
2019-04-04T00:23:57.802Z,18.60
2019-04-04T00:24:57.792Z,22.30
2019-04-04T00:25:57.781Z,21.60
2019-04-04T00:26:57.764Z,23.10
2019-04-04T00:27:57.776Z,22.10
2019-04-04T00:28:57.752Z,23.00
2019-04-04T00:29:57.734Z,23.40
2019-04-04T00:30:57.722Z,22.90
2019-04-04T00:31:57.714Z,20.70
2019-04-04T00:32:57.731Z,21.90
2019-04-04T00:33:57.695Z,19.80
2019-04-04T00:34:57.845Z,25.00
2019-04-04T00:35:57.667Z,23.30
2019-04-04T00:36:57.656Z,26.80
2019-04-04T00:37:57.672Z,22.10
2019-04-04T00:38:57.639Z,22.90
2019-04-04T00:39:57.632Z,25.80
2019-04-04T00:40:57.629Z,26.60
2019-04-04T00:41:57.608Z,30.60
2019-04-04T00:42:57.619Z,32.60
2019-04-04T00:43:57.584Z,31.50
2019-04-04T00:44:57.581Z,27.90
2019-04-04T00:46:00.471Z,28.00
2019-04-04T00:46:57.555Z,26.90
2019-04-04T00:47:57.585Z,25.40
2019-04-04T00:48:57.538Z,27.80
2019-04-04T00:49:57.518Z,30.00
2019-04-04T00:50:57.510Z,30.80
2019-04-04T00:51:57.506Z,28.50
2019-04-04T00:52:57.520Z,29.50
2019-04-04T00:53:57.483Z,27.20
2019-04-04T00:54:57.473Z,20.70
2019-04-04T00:55:57.463Z,22.80
2019-04-04T00:56:57.449Z,23.40
2019-04-04T00:57:57.457Z,24.00
2019-04-04T00:58:57.432Z,25.70
2019-04-04T00:59:57.416Z,20.90
2019-04-04T01:00:57.409Z,24.00
2019-04-04T01:01:57.657Z,23.90
2019-04-04T01:02:58.567Z,26.40
2019-04-04T01:04:00.320Z,23.70
2019-04-04T01:04:57.374Z,27.50
2019-04-04T01:05:57.352Z,26.30
2019-04-04T01:06:57.398Z,26.20
2019-04-04T01:07:57.397Z,31.40
2019-04-04T01:08:57.318Z,30.60
2019-04-04T01:09:57.315Z,33.30
2019-04-04T01:10:57.305Z,25.20
2019-04-04T01:11:57.284Z,28.60
2019-04-04T01:12:57.305Z,31.90
2019-04-04T01:13:57.867Z,27.10
2019-04-04T01:14:58.087Z,34.20
2019-04-04T01:15:57.255Z,35.40
2019-04-04T01:16:57.233Z,35.90
2019-04-04T01:17:57.252Z,33.50
2019-04-04T01:18:57.215Z,27.40
2019-04-04T01:19:57.207Z,30.90
2019-04-04T01:20:57.196Z,20.70
2019-04-04T01:21:57.178Z,24.50
2019-04-04T01:22:57.201Z,24.00
2019-04-04T01:23:58.304Z,29.50
2019-04-04T01:24:57.159Z,33.30
2019-04-04T01:25:57.142Z,32.30
2019-04-04T01:26:57.133Z,38.60
2019-04-04T01:27:57.153Z,31.20
2019-04-04T01:28:57.110Z,34.30
2019-04-04T01:29:57.110Z,35.20
2019-04-04T01:30:57.114Z,32.20
2019-04-04T01:31:57.076Z,30.60
2019-04-04T01:32:57.093Z,30.90
2019-04-04T01:33:57.077Z,26.70
2019-04-04T01:34:57.050Z,33.80
2019-04-04T01:35:57.071Z,41.10
2019-04-04T01:36:57.201Z,36.10
2019-04-04T01:37:58.140Z,35.00
2019-04-04T01:38:58.130Z,35.90
2019-04-04T01:39:57.011Z,34.40
2019-04-04T01:40:56.986Z,35.30
2019-04-04T01:41:56.972Z,30.80
2019-04-04T01:42:56.992Z,27.90
2019-04-04T01:44:04.819Z,27.40
2019-04-04T01:44:57.937Z,30.90
2019-04-04T01:45:56.928Z,24.80
2019-04-04T01:46:56.934Z,35.40
2019-04-04T01:47:56.914Z,31.00
2019-04-04T01:48:56.952Z,29.30
2019-04-04T01:49:56.887Z,35.50
2019-04-04T01:50:56.888Z,33.90
2019-04-04T01:51:57.863Z,34.10
2019-04-04T01:52:58.882Z,30.90
2019-04-04T01:53:56.872Z,30.90
2019-04-04T01:54:56.830Z,29.70
2019-04-04T01:55:56.829Z,27.10
2019-04-04T01:56:56.803Z,28.60
2019-04-04T01:57:56.799Z,28.60
2019-04-04T01:58:56.821Z,28.70
2019-04-04T01:59:56.782Z,29.90
2019-04-04T02:00:56.765Z,30.50
2019-04-04T02:01:56.751Z,30.80
2019-04-04T02:02:56.743Z,27.50
2019-04-04T02:03:56.775Z,34.50
2019-04-04T02:04:56.717Z,35.40
2019-04-04T02:05:58.246Z,45.80
2019-04-04T02:06:58.892Z,37.40
2019-04-04T02:07:56.691Z,40.90
2019-04-04T02:08:56.703Z,32.10
2019-04-04T02:09:56.672Z,44.80
2019-04-04T02:10:56.654Z,36.10
2019-04-04T02:11:56.641Z,38.50
2019-04-04T02:12:56.636Z,38.90
2019-04-04T02:13:56.653Z,38.60
2019-04-04T02:14:56.610Z,35.70
2019-04-04T02:15:56.601Z,45.20
2019-04-04T02:16:56.583Z,46.40
2019-04-04T02:17:56.583Z,54.90
2019-04-04T02:18:56.604Z,49.40
2019-04-04T02:19:56.556Z,50.60
2019-04-04T02:20:57.928Z,45.30
2019-04-04T02:21:57.906Z,47.80
2019-04-04T02:22:56.529Z,42.00
2019-04-04T02:23:56.562Z,45.30
2019-04-04T02:24:56.512Z,41.10
2019-04-04T02:25:56.499Z,48.70
2019-04-04T02:26:56.491Z,64.70
2019-04-04T02:27:56.473Z,60.90
2019-04-04T02:28:56.489Z,46.80
2019-04-04T02:29:56.468Z,49.50
2019-04-04T02:30:56.456Z,49.30
2019-04-04T02:31:56.435Z,44.50
2019-04-04T02:32:59.399Z,62.90
2019-04-04T02:33:56.434Z,43.00
2019-04-04T02:34:56.418Z,46.30
2019-04-04T02:35:56.403Z,46.40
2019-04-04T02:36:56.376Z,47.10
2019-04-04T02:37:56.364Z,47.20
2019-04-04T02:38:57.573Z,42.90
2019-04-04T02:39:56.355Z,45.70
2019-04-04T02:40:56.345Z,45.80
2019-04-04T02:41:56.329Z,44.10
2019-04-04T02:42:56.333Z,56.70
2019-04-04T02:43:59.435Z,43.30
2019-04-04T02:44:56.295Z,40.60
2019-04-04T02:45:56.285Z,47.00
2019-04-04T02:46:56.283Z,49.90
2019-04-04T02:47:56.258Z,43.90
2019-04-04T02:48:57.071Z,42.90
2019-04-04T02:50:00.689Z,42.60
2019-04-04T02:50:57.235Z,48.50
2019-04-04T02:51:56.218Z,47.80
2019-04-04T02:52:56.223Z,48.50
2019-04-04T02:53:56.253Z,50.90
2019-04-04T02:54:58.155Z,50.80
2019-04-04T02:55:56.182Z,46.40
2019-04-04T02:56:56.169Z,52.70
2019-04-04T02:57:56.154Z,47.50
2019-04-04T02:58:56.154Z,50.00
2019-04-04T02:59:56.171Z,57.00
2019-04-04T03:00:59.235Z,55.20
2019-04-04T03:01:56.119Z,53.20
2019-04-04T03:02:56.199Z,50.90
2019-04-04T03:03:56.095Z,55.90
2019-04-04T03:04:56.107Z,51.90
2019-04-04T03:05:56.080Z,58.90
2019-04-04T03:06:58.474Z,55.40
2019-04-04T03:07:56.053Z,56.90
2019-04-04T03:08:56.041Z,59.20
2019-04-04T03:09:56.060Z,54.40
2019-04-04T03:10:56.037Z,65.20
2019-04-04T03:11:56.026Z,70.60
2019-04-04T03:12:58.480Z,63.90
2019-04-04T03:13:55.997Z,58.00
2019-04-04T03:14:56.012Z,59.90
2019-04-04T03:15:55.980Z,62.30
2019-04-04T03:16:56.890Z,70.20
2019-04-04T03:17:55.942Z,73.50
2019-04-04T03:18:55.942Z,65.10
2019-04-04T03:19:55.950Z,68.40
2019-04-04T03:20:55.915Z,61.30
2019-04-04T03:21:56.185Z,76.80
2019-04-04T03:23:00.164Z,77.80
2019-04-04T03:23:55.877Z,76.20
2019-04-04T03:24:55.897Z,76.20
2019-04-04T03:25:55.857Z,70.10
2019-04-04T03:26:55.896Z,66.90
2019-04-04T03:27:58.239Z,70.60
2019-04-04T03:28:55.830Z,70.60
2019-04-04T03:29:55.839Z,80.30
2019-04-04T03:31:02.618Z,78.20
2019-04-04T03:31:56.805Z,79.50
2019-04-04T03:32:55.854Z,77.70
2019-04-04T03:33:55.809Z,93.40
2019-04-04T03:34:55.795Z,80.40
2019-04-04T03:35:57.555Z,87.70
2019-04-04T03:36:55.745Z,93.30
2019-04-04T03:37:55.732Z,98.90
2019-04-04T03:38:55.820Z,103.10
2019-04-04T03:39:55.764Z,101.50
2019-04-04T03:40:57.945Z,72.70
2019-04-04T03:41:55.695Z,69.50
2019-04-04T03:42:55.682Z,94.50
2019-04-04T03:43:55.663Z,85.90
2019-04-04T03:44:55.688Z,77.80
2019-04-04T03:46:00.161Z,67.60
2019-04-04T03:46:56.625Z,86.00
2019-04-04T03:47:55.621Z,70.30
2019-04-04T03:48:55.608Z,75.20
2019-04-04T03:49:57.723Z,89.10
2019-04-04T03:50:57.353Z,95.60
2019-04-04T03:51:55.589Z,96.30
2019-04-04T03:52:55.571Z,127.10
2019-04-04T03:53:55.558Z,111.90
2019-04-04T03:54:56.547Z,104.50
2019-04-04T03:55:59.953Z,134.30
2019-04-04T03:56:56.530Z,180.50
2019-04-04T03:57:55.522Z,157.60
2019-04-04T03:58:59.729Z,136.90
2019-04-04T03:59:55.527Z,135.80
2019-04-04T04:00:55.481Z,107.70
2019-04-04T04:01:55.475Z,95.20
2019-04-04T04:02:55.459Z,92.20
2019-04-04T04:03:55.747Z,83.50
2019-04-04T04:05:00.326Z,82.10
2019-04-04T04:05:56.429Z,74.70
2019-04-04T04:06:55.422Z,86.40
2019-04-04T04:07:55.417Z,72.80
2019-04-04T04:08:55.445Z,86.50
2019-04-04T04:09:59.364Z,112.40
2019-04-04T04:10:55.383Z,111.30
2019-04-04T04:11:55.361Z,154.40
2019-04-04T04:12:55.371Z,108.80
2019-04-04T04:13:55.361Z,80.00
2019-04-04T04:14:55.406Z,103.70
2019-04-04T04:15:55.319Z,107.10
2019-04-04T04:16:55.313Z,98.40
2019-04-04T04:17:55.295Z,127.90
2019-04-04T04:18:55.527Z,111.00
2019-04-04T04:19:55.311Z,104.70
2019-04-04T04:20:55.274Z,89.90
2019-04-04T04:21:55.262Z,94.80
2019-04-04T04:22:55.245Z,100.90
2019-04-04T04:23:56.916Z,104.30
2019-04-04T04:24:55.250Z,108.70
2019-04-04T04:25:55.225Z,92.40
2019-04-04T04:26:55.210Z,98.50
2019-04-04T04:27:55.211Z,87.80
2019-04-04T04:28:55.186Z,78.80
2019-04-04T04:29:55.204Z,97.30
2019-04-04T04:30:55.172Z,73.80
2019-04-04T04:31:55.152Z,88.10
2019-04-04T04:32:57.053Z,72.90
2019-04-04T04:33:55.131Z,64.00
2019-04-04T04:34:55.153Z,85.50
2019-04-04T04:35:55.130Z,96.70
2019-04-04T04:36:55.096Z,71.10
2019-04-04T04:37:55.090Z,73.40
2019-04-04T04:38:58.888Z,73.40
2019-04-04T04:39:55.097Z,80.80
2019-04-04T04:40:55.051Z,90.20
2019-04-04T04:41:55.053Z,79.40
2019-04-04T04:42:55.055Z,101.80
2019-04-04T04:43:55.066Z,88.20
2019-04-04T04:44:55.109Z,74.10
2019-04-04T04:45:55.142Z,80.20
2019-04-04T04:46:55.005Z,95.80
2019-04-04T04:47:57.117Z,87.90
2019-04-04T04:48:55.000Z,85.30
2019-04-04T04:49:55.593Z,75.80
2019-04-04T04:50:55.028Z,81.20
2019-04-04T04:51:55.008Z,87.00
2019-04-04T04:52:54.916Z,83.20
2019-04-04T04:53:54.923Z,86.40
2019-04-04T04:54:55.541Z,82.50
2019-04-04T04:55:54.887Z,85.90
2019-04-04T04:56:54.877Z,88.60
2019-04-04T04:57:56.551Z,83.40
2019-04-04T04:58:55.615Z,88.60
2019-04-04T04:59:54.883Z,82.10
2019-04-04T05:00:54.838Z,82.10
2019-04-04T05:01:54.822Z,82.60
2019-04-04T05:02:54.807Z,86.10
2019-04-04T05:03:56.494Z,108.20
2019-04-04T05:04:54.794Z,112.80
2019-04-04T05:05:54.818Z,131.40
2019-04-04T05:06:54.762Z,137.50
2019-04-04T05:07:55.153Z,139.10
2019-04-04T05:08:54.746Z,144.80
2019-04-04T05:09:54.729Z,147.60
2019-04-04T05:10:54.761Z,110.70
2019-04-04T05:11:54.714Z,158.60
2019-04-04T05:12:54.698Z,143.20
2019-04-04T05:13:56.072Z,138.60
2019-04-04T05:14:55.629Z,95.10
2019-04-04T05:16:08.857Z,127.00
2019-04-04T05:16:55.906Z,122.70
2019-04-04T05:17:54.838Z,141.40
2019-04-04T05:18:54.641Z,158.30
2019-04-04T05:19:54.630Z,95.40
2019-04-04T05:20:57.265Z,153.50
2019-04-04T05:21:54.609Z,115.20
2019-04-04T05:22:54.625Z,107.30
2019-04-04T05:23:54.630Z,124.90
2019-04-04T05:25:07.508Z,99.40
2019-04-04T05:25:55.589Z,91.10
2019-04-04T05:26:54.547Z,100.20
2019-04-04T05:28:06.388Z,85.30
2019-04-04T05:28:56.970Z,122.40
2019-04-04T05:29:54.509Z,166.70
2019-04-04T05:30:54.576Z,86.20
2019-04-04T05:31:54.532Z,106.70
2019-04-04T05:32:56.389Z,94.80
2019-04-04T05:33:54.468Z,83.40
2019-04-04T05:34:54.461Z,98.60
2019-04-04T05:35:54.476Z,114.50
2019-04-04T05:36:54.543Z,104.20
2019-04-04T05:37:54.427Z,97.30
2019-04-04T05:38:54.416Z,169.60
2019-04-04T05:39:55.378Z,112.70
2019-04-04T05:40:55.415Z,147.60
2019-04-04T05:41:54.379Z,117.70
2019-04-04T05:42:54.372Z,86.50
2019-04-04T05:43:54.389Z,86.50
2019-04-04T05:44:54.350Z,111.00
2019-04-04T05:45:54.380Z,151.20
2019-04-04T05:46:54.344Z,136.20
2019-04-04T05:47:56.353Z,89.00
2019-04-04T05:48:54.305Z,140.60
2019-04-04T05:49:54.308Z,123.30
2019-04-04T05:50:54.323Z,140.30
2019-04-04T05:51:54.277Z,117.40
2019-04-04T05:52:54.264Z,129.40
2019-04-04T05:53:54.290Z,135.60
2019-04-04T05:54:54.265Z,145.60
2019-04-04T05:55:54.268Z,103.20
2019-04-04T05:56:54.223Z,92.40
2019-04-04T05:57:54.216Z,86.30
2019-04-04T05:58:54.202Z,91.30
2019-04-04T05:59:56.032Z,101.40
2019-04-04T06:00:54.216Z,113.60
2019-04-04T06:01:54.171Z,108.60
2019-04-04T06:02:54.155Z,93.60
2019-04-04T06:03:54.159Z,106.90
2019-04-04T06:04:55.411Z,91.80
2019-04-04T06:05:54.155Z,91.20
2019-04-04T06:06:55.591Z,101.30
2019-04-04T06:07:54.103Z,93.10
2019-04-04T06:08:54.092Z,102.80
2019-04-04T06:09:54.085Z,95.50
2019-04-04T06:10:54.094Z,102.70
2019-04-04T06:11:54.062Z,114.10
2019-04-04T06:12:55.889Z,96.00
2019-04-04T06:13:54.046Z,91.80
2019-04-04T06:14:54.039Z,91.70
2019-04-04T06:15:54.043Z,95.00
2019-04-04T06:16:54.016Z,104.70
2019-04-04T06:17:53.998Z,83.30
2019-04-04T06:18:53.987Z,72.40
2019-04-04T06:19:53.978Z,101.80
2019-04-04T06:20:53.994Z,98.20
2019-04-04T06:21:53.956Z,113.60
2019-04-04T06:22:53.944Z,130.90
2019-04-04T06:23:55.986Z,86.20
2019-04-04T06:24:53.925Z,86.60
2019-04-04T06:25:53.942Z,86.90
2019-04-04T06:26:53.908Z,81.30
2019-04-04T06:27:53.895Z,78.90
2019-04-04T06:28:53.884Z,76.80
2019-04-04T06:29:53.871Z,81.90
2019-04-04T06:30:54.410Z,61.60
2019-04-04T06:31:53.860Z,82.40
2019-04-04T06:32:53.836Z,125.50
2019-04-04T06:33:53.846Z,110.80
2019-04-04T06:34:56.579Z,106.80
2019-04-04T06:35:53.857Z,127.80
2019-04-04T06:36:53.796Z,96.50
2019-04-04T06:37:53.787Z,105.80
2019-04-04T06:38:54.210Z,105.70
2019-04-04T06:39:54.461Z,106.50
2019-04-04T06:40:53.778Z,114.20
2019-04-04T06:41:53.739Z,112.30
2019-04-04T06:42:53.733Z,100.80
2019-04-04T06:43:53.719Z,104.10
2019-04-04T06:44:54.299Z,107.50
2019-04-04T06:45:53.728Z,113.90
2019-04-04T06:46:54.227Z,89.70
2019-04-04T06:47:55.256Z,125.60
2019-04-04T06:48:53.667Z,134.00
2019-04-04T06:49:53.658Z,107.00
2019-04-04T06:50:53.673Z,139.60
2019-04-04T06:51:53.638Z,100.50
2019-04-04T06:52:56.367Z,113.60
2019-04-04T06:53:54.428Z,114.80
2019-04-04T06:54:55.276Z,123.40
2019-04-04T06:55:53.615Z,86.90
2019-04-04T06:56:53.578Z,77.50
2019-04-04T06:57:53.573Z,55.80
2019-04-04T06:58:53.561Z,51.00
2019-04-04T06:59:53.548Z,87.50
2019-04-04T07:00:53.573Z,103.10
2019-04-04T07:01:53.523Z,110.50
2019-04-04T07:02:55.982Z,132.40
2019-04-04T07:03:53.508Z,94.40
2019-04-04T07:04:53.492Z,116.90
2019-04-04T07:05:53.526Z,90.80
2019-04-04T07:06:53.474Z,92.70
2019-04-04T07:07:53.459Z,100.00
2019-04-04T07:08:53.451Z,113.20
2019-04-04T07:09:53.440Z,104.00
2019-04-04T07:10:58.162Z,86.10
2019-04-04T07:11:54.445Z,79.70
2019-04-04T07:13:09.240Z,93.40
2019-04-04T07:13:54.398Z,100.00
2019-04-04T07:14:53.385Z,81.80
2019-04-04T07:16:06.182Z,88.80
2019-04-04T07:16:54.470Z,104.90
2019-04-04T07:17:53.427Z,88.60
2019-04-04T07:18:53.347Z,90.70
2019-04-04T07:19:53.334Z,79.40
2019-04-04T07:20:53.323Z,99.20
2019-04-04T07:21:53.330Z,103.20
2019-04-04T07:22:55.606Z,78.80
2019-04-04T07:23:53.289Z,66.20
2019-04-04T07:24:53.277Z,70.50
2019-04-04T07:25:53.642Z,56.70
2019-04-04T07:26:53.280Z,96.10
2019-04-04T07:27:53.273Z,76.00
2019-04-04T07:28:53.954Z,58.70
2019-04-04T07:29:56.583Z,75.10
2019-04-04T07:30:54.749Z,70.50
2019-04-04T07:31:53.227Z,61.30
2019-04-04T07:32:53.197Z,84.50
2019-04-04T07:33:53.177Z,81.20
2019-04-04T07:34:53.188Z,86.20
2019-04-04T07:35:53.158Z,71.10
2019-04-04T07:36:53.170Z,75.10
2019-04-04T07:37:57.083Z,82.60
2019-04-04T07:38:53.116Z,76.70
2019-04-04T07:39:53.112Z,66.70
2019-04-04T07:40:53.106Z,111.10
2019-04-04T07:41:53.126Z,108.10
2019-04-04T07:42:53.081Z,70.80
2019-04-04T07:43:53.074Z,57.00
2019-04-04T07:44:54.719Z,61.60
2019-04-04T07:45:55.293Z,51.50
2019-04-04T07:46:54.065Z,68.70
2019-04-04T07:47:53.025Z,65.20
2019-04-04T07:48:53.010Z,98.20
2019-04-04T07:49:53.274Z,57.50
2019-04-04T07:50:52.994Z,71.50
2019-04-04T07:51:53.013Z,90.90
2019-04-04T07:52:52.973Z,102.30
2019-04-04T07:53:52.967Z,94.00
2019-04-04T07:54:52.954Z,108.40
2019-04-04T07:55:52.941Z,80.20
2019-04-04T07:56:52.950Z,62.90
2019-04-04T07:57:52.914Z,65.70
2019-04-04T07:58:52.907Z,71.20
2019-04-04T07:59:52.910Z,62.90
2019-04-04T08:00:52.886Z,98.60
2019-04-04T08:01:52.926Z,72.40
2019-04-04T08:02:52.865Z,65.90
2019-04-04T08:03:52.851Z,65.50
2019-04-04T08:04:52.842Z,59.30
2019-04-04T08:05:52.834Z,61.20
2019-04-04T08:06:52.847Z,51.90
2019-04-04T08:07:52.818Z,51.30
2019-04-04T08:08:52.798Z,44.10
2019-04-04T08:09:52.796Z,48.40
2019-04-04T08:10:52.786Z,46.30
2019-04-04T08:11:52.790Z,43.50
2019-04-04T08:12:52.758Z,46.10
2019-04-04T08:13:52.749Z,45.70
2019-04-04T08:14:52.733Z,42.80
2019-04-04T08:15:52.729Z,54.90
2019-04-04T08:16:52.734Z,63.90
2019-04-04T08:17:52.703Z,45.80
2019-04-04T08:18:52.697Z,61.30
2019-04-04T08:19:59.548Z,54.30
2019-04-04T08:20:53.670Z,63.10
2019-04-04T08:21:52.716Z,58.60
2019-04-04T08:22:52.659Z,87.90
2019-04-04T08:23:52.640Z,55.20
2019-04-04T08:24:52.624Z,55.10
2019-04-04T08:25:52.619Z,58.10
2019-04-04T08:26:52.643Z,58.60
2019-04-04T08:27:52.593Z,61.20
2019-04-04T08:28:52.588Z,50.80
2019-04-04T08:29:52.585Z,59.90
2019-04-04T08:30:52.563Z,54.20
2019-04-04T08:31:52.579Z,64.70
2019-04-04T08:32:52.539Z,62.00
2019-04-04T08:33:52.534Z,54.40
2019-04-04T08:34:52.524Z,66.80
2019-04-04T08:36:05.077Z,69.30
2019-04-04T08:36:53.529Z,63.30
2019-04-04T08:37:52.488Z,61.60
2019-04-04T08:38:52.478Z,61.90
2019-04-04T08:39:52.467Z,55.70
2019-04-04T08:40:52.455Z,53.90
2019-04-04T08:41:52.678Z,61.30
2019-04-04T08:42:52.426Z,62.90
2019-04-04T08:43:52.426Z,65.30
2019-04-04T08:44:52.414Z,70.80
2019-04-04T08:45:52.468Z,67.50
2019-04-04T08:46:55.424Z,71.70
2019-04-04T08:47:52.387Z,97.80
2019-04-04T08:48:52.371Z,68.00
2019-04-04T08:49:52.359Z,64.90
2019-04-04T08:50:52.347Z,72.40
2019-04-04T08:51:52.365Z,87.10
2019-04-04T08:52:52.322Z,66.70
2019-04-04T08:53:52.316Z,65.00
2019-04-04T08:54:52.304Z,69.70
2019-04-04T08:55:52.293Z,65.60
2019-04-04T08:56:52.309Z,61.00
2019-04-04T08:57:52.269Z,66.30
2019-04-04T08:58:52.263Z,62.00
2019-04-04T08:59:52.249Z,62.10
2019-04-04T09:00:52.237Z,71.60
2019-04-04T09:01:52.304Z,77.40
2019-04-04T09:02:52.217Z,71.50
2019-04-04T09:03:52.208Z,81.00
2019-04-04T09:04:52.196Z,80.40
2019-04-04T09:05:52.182Z,98.20
2019-04-04T09:06:52.201Z,61.80
2019-04-04T09:07:52.164Z,66.50
2019-04-04T09:08:52.151Z,63.90
2019-04-04T09:09:52.200Z,77.40
2019-04-04T09:10:52.139Z,70.10
2019-04-04T09:11:52.176Z,66.40
2019-04-04T09:12:52.118Z,77.70
2019-04-04T09:13:52.108Z,93.00
2019-04-04T09:14:52.082Z,87.70
2019-04-04T09:15:52.086Z,78.30
2019-04-04T09:16:52.065Z,88.70
2019-04-04T09:17:52.107Z,81.50
2019-04-04T09:18:52.048Z,93.50
2019-04-04T09:19:52.039Z,87.00
2019-04-04T09:20:52.051Z,68.90
2019-04-04T09:21:52.009Z,67.20
2019-04-04T09:22:52.061Z,86.40
2019-04-04T09:23:51.995Z,82.40
2019-04-04T09:24:51.978Z,76.20
2019-04-04T09:26:04.635Z,79.40
2019-04-04T09:26:52.955Z,91.90
2019-04-04T09:27:51.972Z,70.00
2019-04-04T09:28:51.932Z,77.50
2019-04-04T09:29:51.924Z,75.50
2019-04-04T09:30:51.915Z,73.00
2019-04-04T09:31:51.907Z,96.40
2019-04-04T09:32:51.914Z,90.10
2019-04-04T09:33:51.880Z,74.00
2019-04-04T09:34:51.884Z,81.20
2019-04-04T09:35:51.892Z,81.80
2019-04-04T09:36:51.874Z,80.40
2019-04-04T09:37:51.931Z,99.60
2019-04-04T09:38:51.828Z,101.60
2019-04-04T09:39:51.817Z,104.80
2019-04-04T09:40:51.809Z,88.20
2019-04-04T09:41:51.794Z,89.10
2019-04-04T09:42:51.807Z,87.50
2019-04-04T09:43:51.775Z,91.90
2019-04-04T09:44:51.790Z,103.00
2019-04-04T09:45:51.750Z,85.40
2019-04-04T09:47:04.598Z,83.00
2019-04-04T09:47:52.751Z,97.60
2019-04-04T09:48:51.716Z,92.10
2019-04-04T09:49:51.703Z,93.40
2019-04-04T09:50:51.695Z,102.10
2019-04-04T09:51:51.694Z,101.30
2019-04-04T09:52:51.778Z,101.40
2019-04-04T09:53:53.352Z,112.80
2019-04-04T09:54:51.655Z,116.10
2019-04-04T09:55:51.659Z,115.00
2019-04-04T09:56:51.671Z,95.30
2019-04-04T09:57:51.657Z,111.50
2019-04-04T09:58:54.702Z,119.30
2019-04-04T09:59:51.595Z,123.40
2019-04-04T10:00:51.583Z,110.30
2019-04-04T10:01:51.578Z,105.00
2019-04-04T10:02:51.589Z,97.60
2019-04-04T10:03:51.551Z,113.00
2019-04-04T10:04:51.549Z,99.90
2019-04-04T10:05:51.536Z,121.00
2019-04-04T10:06:51.522Z,112.40
2019-04-04T10:07:51.537Z,93.90
2019-04-04T10:08:51.501Z,108.90
2019-04-04T10:09:51.487Z,104.60
2019-04-04T10:10:51.480Z,109.60
2019-04-04T10:11:51.469Z,119.50
2019-04-04T10:12:51.486Z,101.40
2019-04-04T10:13:51.493Z,108.20
2019-04-04T10:14:51.451Z,108.30
2019-04-04T10:15:51.423Z,128.80
2019-04-04T10:16:51.523Z,94.90
2019-04-04T10:17:51.545Z,105.00
2019-04-04T10:18:51.398Z,107.60
2019-04-04T10:19:51.384Z,88.20
2019-04-04T10:20:51.368Z,94.40
2019-04-04T10:21:51.359Z,109.20
2019-04-04T10:22:51.373Z,90.00
2019-04-04T10:23:51.331Z,95.40
2019-04-04T10:24:51.326Z,116.30
2019-04-04T10:25:51.317Z,114.60
2019-04-04T10:26:51.302Z,103.40
2019-04-04T10:27:51.324Z,93.70
2019-04-04T10:28:51.281Z,104.00
2019-04-04T10:29:51.277Z,99.90
2019-04-04T10:30:51.266Z,71.50
2019-04-04T10:31:51.258Z,77.50
2019-04-04T10:32:51.267Z,89.10
2019-04-04T10:33:51.223Z,60.90
2019-04-04T10:34:51.223Z,67.40
2019-04-04T10:35:51.205Z,75.30
2019-04-04T10:36:51.191Z,74.10
2019-04-04T10:37:51.229Z,66.50
2019-04-04T10:38:51.173Z,67.10
2019-04-04T10:39:51.159Z,79.00
2019-04-04T10:40:51.157Z,70.10
2019-04-04T10:41:51.139Z,77.00
2019-04-04T10:42:51.130Z,63.40
2019-04-04T10:43:51.147Z,61.00
2019-04-04T10:44:51.107Z,62.40
2019-04-04T10:45:51.097Z,70.60
2019-04-04T10:46:51.086Z,72.00
2019-04-04T10:47:51.078Z,62.00
2019-04-04T10:48:51.098Z,65.20
2019-04-04T10:49:51.052Z,62.60
2019-04-04T10:50:51.040Z,74.80
2019-04-04T10:51:51.033Z,53.60
2019-04-04T10:52:51.032Z,63.40
2019-04-04T10:53:51.033Z,55.30
2019-04-04T10:54:51.008Z,59.80
2019-04-04T10:55:50.992Z,61.70
2019-04-04T10:56:50.977Z,52.80
2019-04-04T10:57:50.973Z,52.20
2019-04-04T10:58:50.980Z,54.90
2019-04-04T10:59:54.614Z,49.00
2019-04-04T11:00:50.921Z,52.70
2019-04-04T11:01:50.921Z,50.40
2019-04-04T11:02:50.913Z,49.80
2019-04-04T11:03:50.928Z,50.90
2019-04-04T11:04:50.889Z,55.50
2019-04-04T11:05:50.880Z,45.00
2019-04-04T11:06:50.863Z,52.30
2019-04-04T11:07:50.858Z,60.20
2019-04-04T11:08:50.865Z,51.20
2019-04-04T11:09:50.839Z,54.70
2019-04-04T11:10:50.828Z,52.50
2019-04-04T11:11:50.811Z,53.20
2019-04-04T11:12:50.807Z,50.00
2019-04-04T11:13:50.829Z,49.00
2019-04-04T11:14:50.780Z,48.30
2019-04-04T11:15:50.768Z,50.10
2019-04-04T11:16:50.762Z,49.60
2019-04-04T11:17:50.740Z,53.60
2019-04-04T11:18:50.772Z,46.80
2019-04-04T11:19:50.715Z,51.30
2019-04-04T11:20:50.727Z,55.60
2019-04-04T11:21:50.731Z,58.90
2019-04-04T11:22:50.770Z,51.30
2019-04-04T11:23:50.718Z,44.50
2019-04-04T11:24:50.673Z,45.50
2019-04-04T11:25:50.659Z,47.40
2019-04-04T11:26:50.658Z,47.40
2019-04-04T11:28:01.208Z,50.30
2019-04-04T11:28:50.661Z,47.30
2019-04-04T11:29:50.618Z,44.80
2019-04-04T11:30:50.647Z,47.80
2019-04-04T11:31:50.597Z,50.80
2019-04-04T11:32:50.582Z,49.50
2019-04-04T11:33:50.607Z,65.80
2019-04-04T11:34:53.394Z,51.60
2019-04-04T11:35:50.552Z,54.60
2019-04-04T11:36:50.553Z,56.20
2019-04-04T11:37:50.535Z,50.70
2019-04-04T11:38:50.553Z,45.60
2019-04-04T11:39:55.036Z,45.00
2019-04-04T11:40:50.499Z,44.20
2019-04-04T11:41:50.534Z,42.90
2019-04-04T11:42:50.479Z,43.40
2019-04-04T11:43:50.497Z,46.60
2019-04-04T11:44:50.456Z,44.00
2019-04-04T11:45:50.460Z,44.20
2019-04-04T11:46:50.435Z,46.30
2019-04-04T11:47:50.427Z,44.70
2019-04-04T11:48:50.449Z,45.40
2019-04-04T11:49:50.403Z,51.00
2019-04-04T11:50:50.401Z,51.90
2019-04-04T11:51:50.382Z,48.90
2019-04-04T11:52:50.373Z,46.00
2019-04-04T11:53:50.388Z,45.50
2019-04-04T11:54:50.350Z,50.00
2019-04-04T11:55:50.336Z,47.80
2019-04-04T11:56:50.335Z,47.50
2019-04-04T11:57:50.320Z,51.10
2019-04-04T11:58:50.342Z,50.10
2019-04-04T11:59:50.308Z,47.00
2019-04-04T12:00:50.290Z,43.90
2019-04-04T12:01:50.278Z,46.50
2019-04-04T12:02:50.272Z,43.30
2019-04-04T12:03:50.250Z,52.10
2019-04-04T12:04:50.324Z,50.60
2019-04-04T12:05:50.262Z,55.70
2019-04-04T12:06:50.253Z,47.90
2019-04-04T12:07:50.243Z,52.60
2019-04-04T12:08:50.279Z,45.00
2019-04-04T12:09:50.266Z,57.00
2019-04-04T12:10:50.210Z,47.00
2019-04-04T12:11:50.187Z,53.80
2019-04-04T12:12:50.189Z,47.00
2019-04-04T12:13:50.610Z,49.70
2019-04-04T12:14:50.173Z,54.90
2019-04-04T12:15:50.127Z,53.90
2019-04-04T12:16:50.115Z,57.20
2019-04-04T12:17:50.105Z,56.60
2019-04-04T12:18:50.094Z,52.30
2019-04-04T12:19:50.112Z,46.90
2019-04-04T12:20:50.070Z,45.00
2019-04-04T12:21:50.060Z,47.60
2019-04-04T12:22:50.061Z,49.70
2019-04-04T12:23:51.426Z,47.00
2019-04-04T12:24:50.059Z,48.90
2019-04-04T12:25:50.026Z,52.00
2019-04-04T12:26:50.061Z,44.80
2019-04-04T12:27:50.000Z,44.00
2019-04-04T12:28:49.996Z,43.70
2019-04-04T12:29:50.072Z,47.10
2019-04-04T12:30:49.967Z,48.40
2019-04-04T12:31:49.981Z,48.60
2019-04-04T12:32:49.944Z,45.60
2019-04-04T12:33:49.931Z,47.00
2019-04-04T12:34:49.949Z,51.40
2019-04-04T12:35:52.259Z,51.80
2019-04-04T12:36:49.905Z,45.30
2019-04-04T12:37:49.884Z,45.70
2019-04-04T12:38:49.880Z,46.60
2019-04-04T12:39:49.896Z,45.90
2019-04-04T12:40:49.857Z,47.70
2019-04-04T12:41:49.848Z,44.20
2019-04-04T12:42:49.842Z,42.10
2019-04-04T12:43:49.823Z,46.10
2019-04-04T12:44:49.840Z,46.10
2019-04-04T12:45:49.806Z,44.90
2019-04-04T12:46:49.790Z,42.80
2019-04-04T12:47:49.785Z,40.30
2019-04-04T12:48:49.782Z,41.60